Marquette, KS

11:16 PM CST on January 24, 2015 (GMT -0600)
Salina Municipal | Change Station
CLOSE
Current Station
Airport
Location: Salina,
Elevation: 1286 ft
Nearby Weather Stations
Active Advisory: Wind Advisory

Elev 1286 ft 38.80 °N, 97.65 °W | Updated 23 minutes ago

Overcast
Overcast
49 °F
Feels Like 49 °F
N
17
Wind Variable Wind from West

Today
High -- | Low -- °F
--% Chance of Precip.
Yesterday
High -- | Low -- °F
Precip. -- in
7:43 AM 5:44 PM
Waxing Crescent, 28% visible
Pressure 29.78 in
Visibility 10.0 miles
Clouds Few 7000 ft
Few 11000 ft
Dew Point 40 °F
Humidity 71%
Rainfall 0.03 in
Snow Depth Not available.
UV 0 out of 12
Pollen .10 out of 12
Air Quality Not available.
Flu Activity Not available.
METAR KSLN 250453Z 28015KT 10SM FEW070 FEW110 09/04 A2978 RMK AO2 SLP084 T00940044

More Conditions Fewer Conditions

Pressure 29.78 in
Visibility 10.0 miles
Clouds Few 7000 ft
Few 11000 ft
Dew Point 40 °F
Humidity 71%
Rainfall 0.03 in
Snow Depth Not available.
UV 0 out of 12
Pollen .10 out of 12
Air Quality Not available.
Flu Activity Not available.
METAR KSLN 250453Z 28015KT 10SM FEW070 FEW110 09/04 A2978 RMK AO2 SLP084 T00940044

More Conditions Fewer Conditions

10-Day Weather Forecast

Almanac

Astronomy

Jan. 24, 2015 Rise Set
Actual Time
Civil Twilight
Nautical Twilight
Astronomical Twilight
Moon
Length of Visible Light
Length of Day
Tomorrow will be .
, % of the Moon is Illuminated

Today's Extremes

State Highs State Lows

Community

WunderPhotos

Upload Photos

1,789,843 photos uploaded!

WunderBlogs® & News

Nearby

Air Quality

  Air Quality AQ Index Pollutant
Not available.

Snow Depth

Station Depth Elevation

Earthquake Activity

City Distance Mag. Time & Date
Minimum magnitude displayed is 2.5.

Coastal Water Temperatures

Place Temperature

Nearby Weather Stations